sensor_id;sensor_type;location;lat;lon;timestamp;P1;durP1;ratioP1;P2;durP2;ratioP2
10232;SDS011;5161;48.174;11.756;2022-12-18T00:01:01;41.63;;;24.53;;
10232;SDS011;5161;48.174;11.756;2022-12-18T00:03:31;45.80;;;25.03;;
10232;SDS011;5161;48.174;11.756;2022-12-18T00:05:58;53.13;;;26.47;;
10232;SDS011;5161;48.174;11.756;2022-12-18T00:08:23;47.27;;;24.97;;
10232;SDS011;5161;48.174;11.756;2022-12-18T00:10:49;42.67;;;24.03;;
10232;SDS011;5161;48.174;11.756;2022-12-18T00:13:14;42.70;;;22.93;;
10232;SDS011;5161;48.174;11.756;2022-12-18T00:15:40;42.97;;;22.93;;
10232;SDS011;5161;48.174;11.756;2022-12-18T00:18:06;48.30;;;24.37;;
10232;SDS011;5161;48.174;11.756;2022-12-18T00:20:35;45.93;;;24.93;;
10232;SDS011;5161;48.174;11.756;2022-12-18T00:23:01;49.43;;;25.33;;
10232;SDS011;5161;48.174;11.756;2022-12-18T00:25:27;51.43;;;26.73;;
10232;SDS011;5161;48.174;11.756;2022-12-18T00:27:52;46.40;;;25.33;;
10232;SDS011;5161;48.174;11.756;2022-12-18T00:30:18;46.33;;;25.77;;
10232;SDS011;5161;48.174;11.756;2022-12-18T00:32:43;52.13;;;26.67;;
10232;SDS011;5161;48.174;11.756;2022-12-18T00:35:09;54.13;;;28.33;;
10232;SDS011;5161;48.174;11.756;2022-12-18T00:37:35;56.07;;;27.57;;
10232;SDS011;5161;48.174;11.756;2022-12-18T00:40:00;56.87;;;28.23;;
10232;SDS011;5161;48.174;11.756;2022-12-18T00:42:27;50.27;;;27.43;;
10232;SDS011;5161;48.174;11.756;2022-12-18T00:45:11;49.40;;;26.27;;
10232;SDS011;5161;48.174;11.756;2022-12-18T00:47:36;51.30;;;27.50;;
10232;SDS011;5161;48.174;11.756;2022-12-18T00:50:02;52.13;;;26.43;;
10232;SDS011;5161;48.174;11.756;2022-12-18T00:52:28;57.17;;;30.10;;
10232;SDS011;5161;48.174;11.756;2022-12-18T00:54:53;56.03;;;29.87;;
10232;SDS011;5161;48.174;11.756;2022-12-18T00:57:19;54.57;;;28.23;;
10232;SDS011;5161;48.174;11.756;2022-12-18T00:59:44;55.10;;;29.90;;
10232;SDS011;5161;48.174;11.756;2022-12-18T01:02:13;53.67;;;27.97;;
10232;SDS011;5161;48.174;11.756;2022-12-18T01:04:39;53.53;;;29.13;;
10232;SDS011;5161;48.174;11.756;2022-12-18T01:07:04;53.07;;;28.00;;
10232;SDS011;5161;48.174;11.756;2022-12-18T01:09:30;56.37;;;29.07;;
10232;SDS011;5161;48.174;11.756;2022-12-18T01:11:55;54.97;;;28.47;;
10232;SDS011;5161;48.174;11.756;2022-12-18T01:14:21;53.47;;;28.30;;
10232;SDS011;5161;48.174;11.756;2022-12-18T01:16:46;54.90;;;29.37;;
10232;SDS011;5161;48.174;11.756;2022-12-18T01:19:12;57.03;;;29.33;;
10232;SDS011;5161;48.174;11.756;2022-12-18T01:21:37;50.03;;;27.30;;
10232;SDS011;5161;48.174;11.756;2022-12-18T01:24:03;52.90;;;28.37;;
10232;SDS011;5161;48.174;11.756;2022-12-18T01:26:29;53.33;;;28.30;;
10232;SDS011;5161;48.174;11.756;2022-12-18T01:28:55;53.30;;;28.67;;
10232;SDS011;5161;48.174;11.756;2022-12-18T01:31:26;49.40;;;26.60;;
10232;SDS011;5161;48.174;11.756;2022-12-18T01:33:53;53.03;;;28.50;;
10232;SDS011;5161;48.174;11.756;2022-12-18T01:36:19;56.37;;;28.77;;
10232;SDS011;5161;48.174;11.756;2022-12-18T01:38:58;54.27;;;29.13;;
10232;SDS011;5161;48.174;11.756;2022-12-18T01:41:27;53.30;;;28.30;;
10232;SDS011;5161;48.174;11.756;2022-12-18T01:47:44;55.83;;;29.47;;
10232;SDS011;5161;48.174;11.756;2022-12-18T01:52:43;51.50;;;28.13;;
10232;SDS011;5161;48.174;11.756;2022-12-18T01:55:14;48.70;;;26.57;;
10232;SDS011;5161;48.174;11.756;2022-12-18T01:57:43;50.03;;;26.07;;
10232;SDS011;5161;48.174;11.756;2022-12-18T02:00:11;53.00;;;27.77;;
10232;SDS011;5161;48.174;11.756;2022-12-18T02:02:41;55.03;;;29.47;;
10232;SDS011;5161;48.174;11.756;2022-12-18T02:05:09;59.57;;;30.07;;
10232;SDS011;5161;48.174;11.756;2022-12-18T02:07:41;54.73;;;28.57;;
10232;SDS011;5161;48.174;11.756;2022-12-18T02:10:23;55.27;;;28.73;;
10232;SDS011;5161;48.174;11.756;2022-12-18T02:12:59;56.90;;;30.50;;
10232;SDS011;5161;48.174;11.756;2022-12-18T02:15:31;53.30;;;29.13;;
10232;SDS011;5161;48.174;11.756;2022-12-18T02:18:13;53.07;;;28.60;;
10232;SDS011;5161;48.174;11.756;2022-12-18T02:23:44;46.47;;;25.60;;
10232;SDS011;5161;48.174;11.756;2022-12-18T02:26:16;50.33;;;27.13;;
10232;SDS011;5161;48.174;11.756;2022-12-18T02:31:45;50.87;;;27.23;;
10232;SDS011;5161;48.174;11.756;2022-12-18T02:34:17;52.67;;;26.90;;
10232;SDS011;5161;48.174;11.756;2022-12-18T02:36:46;52.23;;;27.90;;
10232;SDS011;5161;48.174;11.756;2022-12-18T02:39:14;57.57;;;28.87;;
10232;SDS011;5161;48.174;11.756;2022-12-18T02:41:40;56.30;;;29.27;;
10232;SDS011;5161;48.174;11.756;2022-12-18T02:44:08;53.97;;;28.80;;
10232;SDS011;5161;48.174;11.756;2022-12-18T02:46:39;53.93;;;27.23;;
10232;SDS011;5161;48.174;11.756;2022-12-18T02:57:47;50.23;;;27.03;;
10232;SDS011;5161;48.174;11.756;2022-12-18T03:00:18;55.37;;;27.80;;
10232;SDS011;5161;48.174;11.756;2022-12-18T03:02:55;51.40;;;27.07;;
10232;SDS011;5161;48.174;11.756;2022-12-18T03:05:25;50.93;;;26.77;;
10232;SDS011;5161;48.174;11.756;2022-12-18T03:08:00;55.13;;;27.80;;
10232;SDS011;5161;48.174;11.756;2022-12-18T03:10:31;51.30;;;27.00;;
10232;SDS011;5161;48.174;11.756;2022-12-18T03:13:02;50.73;;;26.70;;
10232;SDS011;5161;48.174;11.756;2022-12-18T03:15:37;52.33;;;27.00;;
10232;SDS011;5161;48.174;11.756;2022-12-18T03:18:10;53.87;;;26.93;;
10232;SDS011;5161;48.174;11.756;2022-12-18T03:20:48;50.30;;;26.73;;
10232;SDS011;5161;48.174;11.756;2022-12-18T03:23:18;54.67;;;27.43;;
10232;SDS011;5161;48.174;11.756;2022-12-18T03:25:46;53.53;;;27.13;;
10232;SDS011;5161;48.174;11.756;2022-12-18T03:28:19;53.90;;;28.50;;
10232;SDS011;5161;48.174;11.756;2022-12-18T03:30:47;48.40;;;25.27;;
10232;SDS011;5161;48.174;11.756;2022-12-18T03:33:25;49.97;;;26.20;;
10232;SDS011;5161;48.174;11.756;2022-12-18T03:35:59;52.47;;;26.00;;
10232;SDS011;5161;48.174;11.756;2022-12-18T03:38:25;49.07;;;25.77;;
10232;SDS011;5161;48.174;11.756;2022-12-18T03:43:47;45.73;;;24.23;;
10232;SDS011;5161;48.174;11.756;2022-12-18T03:46:24;47.07;;;24.83;;
10232;SDS011;5161;48.174;11.756;2022-12-18T03:49:22;44.73;;;23.47;;
10232;SDS011;5161;48.174;11.756;2022-12-18T03:51:53;43.37;;;23.03;;
10232;SDS011;5161;48.174;11.756;2022-12-18T03:54:26;43.03;;;23.37;;
10232;SDS011;5161;48.174;11.756;2022-12-18T03:56:56;43.77;;;24.00;;
10232;SDS011;5161;48.174;11.756;2022-12-18T03:59:34;42.07;;;23.13;;
10232;SDS011;5161;48.174;11.756;2022-12-18T04:02:01;44.80;;;23.17;;
10232;SDS011;5161;48.174;11.756;2022-12-18T04:04:29;41.70;;;23.33;;
10232;SDS011;5161;48.174;11.756;2022-12-18T04:06:56;43.00;;;23.13;;
10232;SDS011;5161;48.174;11.756;2022-12-18T04:09:23;44.27;;;23.03;;
10232;SDS011;5161;48.174;11.756;2022-12-18T04:11:49;41.73;;;22.60;;
10232;SDS011;5161;48.174;11.756;2022-12-18T04:14:16;42.10;;;22.53;;
10232;SDS011;5161;48.174;11.756;2022-12-18T04:16:42;38.97;;;21.47;;
10232;SDS011;5161;48.174;11.756;2022-12-18T04:19:07;38.77;;;21.33;;
10232;SDS011;5161;48.174;11.756;2022-12-18T04:21:33;39.60;;;21.57;;
10232;SDS011;5161;48.174;11.756;2022-12-18T04:23:58;43.57;;;23.07;;
10232;SDS011;5161;48.174;11.756;2022-12-18T04:26:24;40.73;;;22.40;;
10232;SDS011;5161;48.174;11.756;2022-12-18T04:28:49;42.33;;;22.43;;
10232;SDS011;5161;48.174;11.756;2022-12-18T04:31:15;41.73;;;21.57;;
10232;SDS011;5161;48.174;11.756;2022-12-18T04:33:40;42.07;;;22.77;;
10232;SDS011;5161;48.174;11.756;2022-12-18T04:36:06;43.00;;;21.77;;
10232;SDS011;5161;48.174;11.756;2022-12-18T04:38:32;42.37;;;22.37;;
10232;SDS011;5161;48.174;11.756;2022-12-18T04:40:57;43.20;;;22.97;;
10232;SDS011;5161;48.174;11.756;2022-12-18T04:43:23;44.80;;;23.30;;
10232;SDS011;5161;48.174;11.756;2022-12-18T04:45:49;45.60;;;23.23;;
10232;SDS011;5161;48.174;11.756;2022-12-18T04:48:14;43.63;;;23.70;;
10232;SDS011;5161;48.174;11.756;2022-12-18T04:50:40;46.07;;;23.47;;
10232;SDS011;5161;48.174;11.756;2022-12-18T04:53:06;45.67;;;24.77;;
10232;SDS011;5161;48.174;11.756;2022-12-18T04:55:32;41.90;;;23.00;;
10232;SDS011;5161;48.174;11.756;2022-12-18T04:57:57;41.27;;;22.23;;
10232;SDS011;5161;48.174;11.756;2022-12-18T05:00:23;46.50;;;23.53;;
10232;SDS011;5161;48.174;11.756;2022-12-18T05:02:49;46.00;;;24.23;;
10232;SDS011;5161;48.174;11.756;2022-12-18T05:05:15;44.20;;;23.33;;
10232;SDS011;5161;48.174;11.756;2022-12-18T05:07:41;43.47;;;23.17;;
10232;SDS011;5161;48.174;11.756;2022-12-18T05:10:06;42.77;;;23.90;;
10232;SDS011;5161;48.174;11.756;2022-12-18T05:12:33;44.40;;;23.03;;
10232;SDS011;5161;48.174;11.756;2022-12-18T05:14:58;38.60;;;22.17;;
10232;SDS011;5161;48.174;11.756;2022-12-18T05:17:24;41.00;;;21.63;;
10232;SDS011;5161;48.174;11.756;2022-12-18T05:19:50;37.70;;;21.30;;
10232;SDS011;5161;48.174;11.756;2022-12-18T05:22:15;44.33;;;23.43;;
10232;SDS011;5161;48.174;11.756;2022-12-18T05:24:41;43.10;;;23.43;;
10232;SDS011;5161;48.174;11.756;2022-12-18T05:27:06;45.77;;;24.30;;
10232;SDS011;5161;48.174;11.756;2022-12-18T05:29:32;49.67;;;24.80;;
10232;SDS011;5161;48.174;11.756;2022-12-18T05:31:57;47.33;;;24.97;;
10232;SDS011;5161;48.174;11.756;2022-12-18T05:34:23;44.57;;;24.00;;
10232;SDS011;5161;48.174;11.756;2022-12-18T05:36:48;46.17;;;25.17;;
10232;SDS011;5161;48.174;11.756;2022-12-18T05:39:14;41.37;;;23.03;;
10232;SDS011;5161;48.174;11.756;2022-12-18T05:41:40;42.20;;;22.40;;
10232;SDS011;5161;48.174;11.756;2022-12-18T05:44:06;41.60;;;22.40;;
10232;SDS011;5161;48.174;11.756;2022-12-18T05:46:31;45.80;;;24.13;;
10232;SDS011;5161;48.174;11.756;2022-12-18T05:49:00;43.33;;;23.80;;
10232;SDS011;5161;48.174;11.756;2022-12-18T05:51:26;42.23;;;22.87;;
10232;SDS011;5161;48.174;11.756;2022-12-18T05:53:52;41.33;;;21.97;;
10232;SDS011;5161;48.174;11.756;2022-12-18T05:56:18;46.60;;;23.60;;
10232;SDS011;5161;48.174;11.756;2022-12-18T05:58:45;45.73;;;22.93;;
10232;SDS011;5161;48.174;11.756;2022-12-18T06:01:13;45.20;;;24.60;;
10232;SDS011;5161;48.174;11.756;2022-12-18T06:03:40;40.60;;;22.03;;
10232;SDS011;5161;48.174;11.756;2022-12-18T06:06:13;41.40;;;22.27;;
10232;SDS011;5161;48.174;11.756;2022-12-18T06:08:38;42.87;;;22.63;;
10232;SDS011;5161;48.174;11.756;2022-12-18T06:11:04;41.20;;;23.00;;
10232;SDS011;5161;48.174;11.756;2022-12-18T06:13:29;44.10;;;23.30;;
10232;SDS011;5161;48.174;11.756;2022-12-18T06:15:55;41.17;;;22.40;;
10232;SDS011;5161;48.174;11.756;2022-12-18T06:18:20;39.83;;;22.03;;
10232;SDS011;5161;48.174;11.756;2022-12-18T06:20:53;38.40;;;20.67;;
10232;SDS011;5161;48.174;11.756;2022-12-18T06:23:20;39.07;;;21.53;;
10232;SDS011;5161;48.174;11.756;2022-12-18T06:25:46;38.77;;;21.00;;
10232;SDS011;5161;48.174;11.756;2022-12-18T06:28:11;38.00;;;20.67;;
10232;SDS011;5161;48.174;11.756;2022-12-18T06:30:37;39.07;;;20.83;;
10232;SDS011;5161;48.174;11.756;2022-12-18T06:33:02;40.03;;;21.93;;
10232;SDS011;5161;48.174;11.756;2022-12-18T06:35:28;39.97;;;21.23;;
10232;SDS011;5161;48.174;11.756;2022-12-18T06:37:53;38.77;;;21.80;;
10232;SDS011;5161;48.174;11.756;2022-12-18T06:40:19;39.93;;;21.43;;
10232;SDS011;5161;48.174;11.756;2022-12-18T06:42:45;38.93;;;21.30;;
10232;SDS011;5161;48.174;11.756;2022-12-18T06:45:10;39.13;;;21.00;;
10232;SDS011;5161;48.174;11.756;2022-12-18T06:47:36;40.13;;;21.57;;
10232;SDS011;5161;48.174;11.756;2022-12-18T06:50:02;35.70;;;20.13;;
10232;SDS011;5161;48.174;11.756;2022-12-18T06:52:27;36.67;;;20.83;;
10232;SDS011;5161;48.174;11.756;2022-12-18T06:54:53;35.87;;;19.93;;
10232;SDS011;5161;48.174;11.756;2022-12-18T06:57:18;37.30;;;21.27;;
10232;SDS011;5161;48.174;11.756;2022-12-18T06:59:45;37.00;;;20.87;;
10232;SDS011;5161;48.174;11.756;2022-12-18T07:02:11;37.67;;;20.53;;
10232;SDS011;5161;48.174;11.756;2022-12-18T07:04:37;36.27;;;20.03;;
10232;SDS011;5161;48.174;11.756;2022-12-18T07:07:03;38.40;;;21.47;;
10232;SDS011;5161;48.174;11.756;2022-12-18T07:09:28;38.73;;;21.63;;
10232;SDS011;5161;48.174;11.756;2022-12-18T07:11:54;41.50;;;22.57;;
10232;SDS011;5161;48.174;11.756;2022-12-18T07:14:19;38.17;;;21.57;;
10232;SDS011;5161;48.174;11.756;2022-12-18T07:16:45;40.97;;;24.57;;
10232;SDS011;5161;48.174;11.756;2022-12-18T07:19:11;37.00;;;21.53;;
10232;SDS011;5161;48.174;11.756;2022-12-18T07:21:36;39.50;;;21.50;;
10232;SDS011;5161;48.174;11.756;2022-12-18T07:24:02;38.63;;;21.23;;
10232;SDS011;5161;48.174;11.756;2022-12-18T07:26:27;39.87;;;21.97;;
10232;SDS011;5161;48.174;11.756;2022-12-18T07:28:56;41.77;;;22.00;;
10232;SDS011;5161;48.174;11.756;2022-12-18T07:31:23;38.57;;;21.27;;
10232;SDS011;5161;48.174;11.756;2022-12-18T07:33:49;38.40;;;20.87;;
10232;SDS011;5161;48.174;11.756;2022-12-18T07:36:15;37.10;;;20.30;;
10232;SDS011;5161;48.174;11.756;2022-12-18T07:38:41;37.90;;;20.20;;
10232;SDS011;5161;48.174;11.756;2022-12-18T07:41:09;33.30;;;19.00;;
10232;SDS011;5161;48.174;11.756;2022-12-18T07:43:37;34.63;;;19.30;;
10232;SDS011;5161;48.174;11.756;2022-12-18T07:46:03;32.40;;;18.10;;
10232;SDS011;5161;48.174;11.756;2022-12-18T07:48:30;32.77;;;18.70;;
10232;SDS011;5161;48.174;11.756;2022-12-18T07:50:59;33.63;;;18.80;;
10232;SDS011;5161;48.174;11.756;2022-12-18T07:53:25;36.40;;;19.47;;
10232;SDS011;5161;48.174;11.756;2022-12-18T07:55:55;38.23;;;20.20;;
10232;SDS011;5161;48.174;11.756;2022-12-18T07:58:22;34.77;;;19.07;;
10232;SDS011;5161;48.174;11.756;2022-12-18T08:00:47;38.17;;;19.80;;
10232;SDS011;5161;48.174;11.756;2022-12-18T08:03:13;38.40;;;20.10;;
10232;SDS011;5161;48.174;11.756;2022-12-18T08:05:38;33.93;;;19.63;;
10232;SDS011;5161;48.174;11.756;2022-12-18T08:08:04;38.77;;;20.80;;
10232;SDS011;5161;48.174;11.756;2022-12-18T08:10:29;36.90;;;19.77;;
10232;SDS011;5161;48.174;11.756;2022-12-18T08:12:55;37.03;;;19.80;;
10232;SDS011;5161;48.174;11.756;2022-12-18T08:15:21;34.60;;;19.20;;
10232;SDS011;5161;48.174;11.756;2022-12-18T08:17:46;32.43;;;18.33;;
10232;SDS011;5161;48.174;11.756;2022-12-18T08:20:12;33.90;;;18.17;;
10232;SDS011;5161;48.174;11.756;2022-12-18T08:22:39;37.93;;;19.60;;
10232;SDS011;5161;48.174;11.756;2022-12-18T08:25:08;34.97;;;18.57;;
10232;SDS011;5161;48.174;11.756;2022-12-18T08:27:36;30.67;;;17.93;;
10232;SDS011;5161;48.174;11.756;2022-12-18T08:30:02;34.13;;;19.20;;
10232;SDS011;5161;48.174;11.756;2022-12-18T08:32:55;34.60;;;18.07;;
10232;SDS011;5161;48.174;11.756;2022-12-18T08:35:22;32.77;;;18.60;;
10232;SDS011;5161;48.174;11.756;2022-12-18T08:37:47;34.20;;;18.57;;
10232;SDS011;5161;48.174;11.756;2022-12-18T08:40:13;33.03;;;18.13;;
10232;SDS011;5161;48.174;11.756;2022-12-18T08:42:38;35.27;;;19.20;;
10232;SDS011;5161;48.174;11.756;2022-12-18T08:45:23;33.87;;;18.50;;
10232;SDS011;5161;48.174;11.756;2022-12-18T08:47:49;38.33;;;20.07;;
10232;SDS011;5161;48.174;11.756;2022-12-18T08:50:15;38.10;;;19.73;;
10232;SDS011;5161;48.174;11.756;2022-12-18T08:52:47;33.67;;;19.00;;
10232;SDS011;5161;48.174;11.756;2022-12-18T08:55:13;36.33;;;19.77;;
10232;SDS011;5161;48.174;11.756;2022-12-18T08:57:38;35.03;;;19.87;;
10232;SDS011;5161;48.174;11.756;2022-12-18T09:00:04;39.30;;;20.73;;
10232;SDS011;5161;48.174;11.756;2022-12-18T09:02:30;35.27;;;19.20;;
10232;SDS011;5161;48.174;11.756;2022-12-18T09:04:57;30.13;;;17.67;;
10232;SDS011;5161;48.174;11.756;2022-12-18T09:07:22;30.80;;;17.13;;
10232;SDS011;5161;48.174;11.756;2022-12-18T09:09:48;28.87;;;16.83;;
10232;SDS011;5161;48.174;11.756;2022-12-18T09:12:13;34.60;;;17.40;;
10232;SDS011;5161;48.174;11.756;2022-12-18T09:14:39;30.60;;;17.53;;
10232;SDS011;5161;48.174;11.756;2022-12-18T09:17:04;31.73;;;18.67;;
10232;SDS011;5161;48.174;11.756;2022-12-18T09:19:30;32.93;;;18.43;;
10232;SDS011;5161;48.174;11.756;2022-12-18T09:21:56;33.37;;;17.57;;
10232;SDS011;5161;48.174;11.756;2022-12-18T09:24:24;33.67;;;19.03;;
10232;SDS011;5161;48.174;11.756;2022-12-18T09:26:52;32.33;;;18.47;;
10232;SDS011;5161;48.174;11.756;2022-12-18T09:29:19;31.13;;;17.30;;
10232;SDS011;5161;48.174;11.756;2022-12-18T09:31:45;27.40;;;16.47;;
10232;SDS011;5161;48.174;11.756;2022-12-18T09:34:11;34.03;;;19.07;;
10232;SDS011;5161;48.174;11.756;2022-12-18T09:36:37;31.07;;;17.47;;
10232;SDS011;5161;48.174;11.756;2022-12-18T09:39:03;32.60;;;18.53;;
10232;SDS011;5161;48.174;11.756;2022-12-18T09:44:19;33.17;;;18.10;;
10232;SDS011;5161;48.174;11.756;2022-12-18T09:49:56;33.23;;;18.37;;
10232;SDS011;5161;48.174;11.756;2022-12-18T09:57:57;29.10;;;16.87;;
10232;SDS011;5161;48.174;11.756;2022-12-18T10:00:29;30.73;;;16.53;;
10232;SDS011;5161;48.174;11.756;2022-12-18T10:03:03;29.50;;;16.27;;
10232;SDS011;5161;48.174;11.756;2022-12-18T10:08:33;31.67;;;17.13;;
10232;SDS011;5161;48.174;11.756;2022-12-18T10:11:22;28.63;;;15.83;;
10232;SDS011;5161;48.174;11.756;2022-12-18T10:16:59;26.17;;;15.60;;
10232;SDS011;5161;48.174;11.756;2022-12-18T10:19:47;28.50;;;16.13;;
10232;SDS011;5161;48.174;11.756;2022-12-18T10:22:21;29.73;;;16.67;;
10232;SDS011;5161;48.174;11.756;2022-12-18T10:25:24;26.83;;;16.10;;
10232;SDS011;5161;48.174;11.756;2022-12-18T10:27:52;28.30;;;16.33;;
10232;SDS011;5161;48.174;11.756;2022-12-18T10:30:22;29.47;;;16.30;;
10232;SDS011;5161;48.174;11.756;2022-12-18T10:32:49;30.07;;;16.80;;
10232;SDS011;5161;48.174;11.756;2022-12-18T10:35:16;25.90;;;14.80;;
10232;SDS011;5161;48.174;11.756;2022-12-18T10:38:05;32.13;;;16.43;;
10232;SDS011;5161;48.174;11.756;2022-12-18T10:40:31;27.13;;;16.20;;
10232;SDS011;5161;48.174;11.756;2022-12-18T10:43:13;28.53;;;17.33;;
10232;SDS011;5161;48.174;11.756;2022-12-18T10:45:40;27.93;;;15.47;;
10232;SDS011;5161;48.174;11.756;2022-12-18T10:48:19;30.37;;;16.83;;
10232;SDS011;5161;48.174;11.756;2022-12-18T10:50:47;28.07;;;16.13;;
10232;SDS011;5161;48.174;11.756;2022-12-18T10:53:19;29.83;;;16.57;;
10232;SDS011;5161;48.174;11.756;2022-12-18T10:55:56;25.57;;;15.37;;
10232;SDS011;5161;48.174;11.756;2022-12-18T10:58:31;24.70;;;15.07;;
10232;SDS011;5161;48.174;11.756;2022-12-18T11:01:09;30.17;;;16.57;;
10232;SDS011;5161;48.174;11.756;2022-12-18T11:03:43;28.40;;;16.47;;
10232;SDS011;5161;48.174;11.756;2022-12-18T11:06:16;26.27;;;15.50;;
10232;SDS011;5161;48.174;11.756;2022-12-18T11:08:57;27.90;;;15.47;;
10232;SDS011;5161;48.174;11.756;2022-12-18T11:11:27;27.27;;;15.90;;
10232;SDS011;5161;48.174;11.756;2022-12-18T11:14:04;29.77;;;17.07;;
10232;SDS011;5161;48.174;11.756;2022-12-18T11:16:36;28.13;;;16.10;;
10232;SDS011;5161;48.174;11.756;2022-12-18T11:21:49;29.50;;;15.97;;
10232;SDS011;5161;48.174;11.756;2022-12-18T11:24:18;33.03;;;18.13;;
10232;SDS011;5161;48.174;11.756;2022-12-18T11:26:51;27.77;;;16.37;;
10232;SDS011;5161;48.174;11.756;2022-12-18T11:29:19;31.77;;;16.63;;
10232;SDS011;5161;48.174;11.756;2022-12-18T11:31:51;30.87;;;16.70;;
10232;SDS011;5161;48.174;11.756;2022-12-18T11:34:33;32.43;;;18.33;;
10232;SDS011;5161;48.174;11.756;2022-12-18T11:37:00;29.70;;;17.23;;
10232;SDS011;5161;48.174;11.756;2022-12-18T11:39:34;27.67;;;16.20;;
10232;SDS011;5161;48.174;11.756;2022-12-18T11:42:17;29.07;;;16.23;;
10232;SDS011;5161;48.174;11.756;2022-12-18T11:53:16;35.83;;;19.47;;
10232;SDS011;5161;48.174;11.756;2022-12-18T11:55:49;32.77;;;18.67;;
10232;SDS011;5161;48.174;11.756;2022-12-18T12:06:56;31.77;;;18.33;;
10232;SDS011;5161;48.174;11.756;2022-12-18T12:10:18;35.63;;;21.87;;
10232;SDS011;5161;48.174;11.756;2022-12-18T12:20:52;32.93;;;17.83;;
10232;SDS011;5161;48.174;11.756;2022-12-18T12:31:53;38.30;;;21.67;;
10232;SDS011;5161;48.174;11.756;2022-12-18T12:34:38;41.50;;;23.37;;
10232;SDS011;5161;48.174;11.756;2022-12-18T12:39:44;40.57;;;22.23;;
10232;SDS011;5161;48.174;11.756;2022-12-18T12:42:20;33.53;;;20.20;;
10232;SDS011;5161;48.174;11.756;2022-12-18T12:46:00;29.07;;;16.83;;
10232;SDS011;5161;48.174;11.756;2022-12-18T12:48:27;30.23;;;17.10;;
10232;SDS011;5161;48.174;11.756;2022-12-18T12:51:06;29.30;;;17.13;;
10232;SDS011;5161;48.174;11.756;2022-12-18T12:53:37;33.60;;;18.23;;
10232;SDS011;5161;48.174;11.756;2022-12-18T12:56:06;33.07;;;18.07;;
10232;SDS011;5161;48.174;11.756;2022-12-18T13:01:28;27.90;;;16.53;;
10232;SDS011;5161;48.174;11.756;2022-12-18T13:06:51;29.57;;;17.77;;
10232;SDS011;5161;48.174;11.756;2022-12-18T13:09:24;31.63;;;17.47;;
10232;SDS011;5161;48.174;11.756;2022-12-18T13:11:57;28.50;;;17.27;;
10232;SDS011;5161;48.174;11.756;2022-12-18T13:14:52;29.43;;;17.97;;
10232;SDS011;5161;48.174;11.756;2022-12-18T13:22:22;30.33;;;17.97;;
10232;SDS011;5161;48.174;11.756;2022-12-18T13:24:53;34.77;;;19.03;;
10232;SDS011;5161;48.174;11.756;2022-12-18T13:45:47;36.43;;;20.47;;
10232;SDS011;5161;48.174;11.756;2022-12-18T13:48:24;32.33;;;19.87;;
10232;SDS011;5161;48.174;11.756;2022-12-18T13:50:58;32.70;;;20.07;;
10232;SDS011;5161;48.174;11.756;2022-12-18T13:53:43;31.47;;;18.60;;
10232;SDS011;5161;48.174;11.756;2022-12-18T13:56:16;30.80;;;18.63;;
10232;SDS011;5161;48.174;11.756;2022-12-18T13:58:45;32.00;;;18.53;;
10232;SDS011;5161;48.174;11.756;2022-12-18T14:01:27;31.87;;;18.63;;
10232;SDS011;5161;48.174;11.756;2022-12-18T14:04:08;31.70;;;18.43;;
10232;SDS011;5161;48.174;11.756;2022-12-18T14:06:35;30.37;;;17.83;;
10232;SDS011;5161;48.174;11.756;2022-12-18T14:09:01;31.90;;;18.40;;
10232;SDS011;5161;48.174;11.756;2022-12-18T14:11:27;31.47;;;18.60;;
10232;SDS011;5161;48.174;11.756;2022-12-18T14:13:54;34.33;;;19.50;;
10232;SDS011;5161;48.174;11.756;2022-12-18T14:16:19;32.83;;;18.77;;
10232;SDS011;5161;48.174;11.756;2022-12-18T14:19:04;33.63;;;19.60;;
10232;SDS011;5161;48.174;11.756;2022-12-18T14:21:36;37.63;;;21.30;;
10232;SDS011;5161;48.174;11.756;2022-12-18T14:26:40;33.23;;;19.80;;
10232;SDS011;5161;48.174;11.756;2022-12-18T14:34:42;39.83;;;23.27;;
10232;SDS011;5161;48.174;11.756;2022-12-18T14:37:20;36.67;;;22.07;;
10232;SDS011;5161;48.174;11.756;2022-12-18T14:39:55;37.90;;;22.80;;
10232;SDS011;5161;48.174;11.756;2022-12-18T14:42:25;36.83;;;21.57;;
10232;SDS011;5161;48.174;11.756;2022-12-18T14:47:58;47.87;;;28.00;;
10232;SDS011;5161;48.174;11.756;2022-12-18T14:50:24;43.17;;;25.67;;
10232;SDS011;5161;48.174;11.756;2022-12-18T14:52:50;36.67;;;22.53;;
10232;SDS011;5161;48.174;11.756;2022-12-18T14:55:19;45.50;;;27.80;;
10232;SDS011;5161;48.174;11.756;2022-12-18T14:57:49;46.97;;;27.53;;
10232;SDS011;5161;48.174;11.756;2022-12-18T15:00:18;49.00;;;31.17;;
10232;SDS011;5161;48.174;11.756;2022-12-18T15:02:46;42.00;;;25.07;;
10232;SDS011;5161;48.174;11.756;2022-12-18T15:05:19;36.97;;;22.10;;
10232;SDS011;5161;48.174;11.756;2022-12-18T15:07:57;51.17;;;29.03;;
10232;SDS011;5161;48.174;11.756;2022-12-18T15:10:25;57.43;;;32.10;;
10232;SDS011;5161;48.174;11.756;2022-12-18T15:20:33;35.77;;;20.83;;
10232;SDS011;5161;48.174;11.756;2022-12-18T15:23:16;37.97;;;22.77;;
10232;SDS011;5161;48.174;11.756;2022-12-18T15:25:56;42.23;;;24.17;;
10232;SDS011;5161;48.174;11.756;2022-12-18T15:28:25;42.80;;;23.90;;
10232;SDS011;5161;48.174;11.756;2022-12-18T15:31:17;36.03;;;21.13;;
10232;SDS011;5161;48.174;11.756;2022-12-18T15:36:18;33.90;;;20.17;;
10232;SDS011;5161;48.174;11.756;2022-12-18T15:38:49;32.93;;;19.53;;
10232;SDS011;5161;48.174;11.756;2022-12-18T15:41:19;36.87;;;20.30;;
10232;SDS011;5161;48.174;11.756;2022-12-18T15:43:47;36.57;;;21.47;;
10232;SDS011;5161;48.174;11.756;2022-12-18T15:46:15;34.73;;;20.70;;
10232;SDS011;5161;48.174;11.756;2022-12-18T15:48:44;38.37;;;22.57;;
10232;SDS011;5161;48.174;11.756;2022-12-18T15:51:11;40.70;;;23.50;;
10232;SDS011;5161;48.174;11.756;2022-12-18T15:53:50;37.57;;;21.93;;
10232;SDS011;5161;48.174;11.756;2022-12-18T15:56:17;44.20;;;24.20;;
10232;SDS011;5161;48.174;11.756;2022-12-18T15:59:04;34.77;;;20.43;;
10232;SDS011;5161;48.174;11.756;2022-12-18T16:01:34;41.20;;;23.37;;
10232;SDS011;5161;48.174;11.756;2022-12-18T16:04:00;40.73;;;22.57;;
10232;SDS011;5161;48.174;11.756;2022-12-18T16:06:25;41.20;;;23.17;;
10232;SDS011;5161;48.174;11.756;2022-12-18T16:08:51;44.07;;;24.80;;
10232;SDS011;5161;48.174;11.756;2022-12-18T16:11:24;41.53;;;24.20;;
10232;SDS011;5161;48.174;11.756;2022-12-18T16:16:48;36.10;;;20.50;;
10232;SDS011;5161;48.174;11.756;2022-12-18T16:19:16;35.27;;;20.37;;
10232;SDS011;5161;48.174;11.756;2022-12-18T16:21:42;38.13;;;21.83;;
10232;SDS011;5161;48.174;11.756;2022-12-18T16:24:17;34.60;;;20.00;;
10232;SDS011;5161;48.174;11.756;2022-12-18T16:26:47;35.53;;;20.37;;
10232;SDS011;5161;48.174;11.756;2022-12-18T16:29:14;38.97;;;21.47;;
10232;SDS011;5161;48.174;11.756;2022-12-18T16:31:40;37.83;;;22.20;;
10232;SDS011;5161;48.174;11.756;2022-12-18T16:36:57;42.03;;;23.57;;
10232;SDS011;5161;48.174;11.756;2022-12-18T16:39:27;42.83;;;22.93;;
10232;SDS011;5161;48.174;11.756;2022-12-18T16:41:53;36.33;;;20.93;;
10232;SDS011;5161;48.174;11.756;2022-12-18T16:44:19;36.20;;;21.43;;
10232;SDS011;5161;48.174;11.756;2022-12-18T16:46:45;39.70;;;22.23;;
10232;SDS011;5161;48.174;11.756;2022-12-18T16:49:14;40.03;;;22.77;;
10232;SDS011;5161;48.174;11.756;2022-12-18T16:51:40;54.83;;;30.90;;